Airport View

Enter AWOS ICAO identifier for current METAR.

ex. KFNL

KOCW 080635Z AUTO 09003KT 10SM CLR 22/21 A3009 RMK AO2 T02180210

8 Aug 2020 06:36

Frequency: 120.175

Phone: 252-975-6133

Other Area AWOS: KPGV - KEWN - KISO - KETC

TAF KPGV 080545Z 0806/0906 00000KT P6SM OVC120 FM081000 00000KT 5SM BR SCT005 BKN070 TEMPO 0810/0813 1SM BR BKN003 FM081300 00000KT P6SM SCT015 BKN050 FM081900 20004KT P6SM VCTS SCT050CB FM082300 17006KT P6SM SCT060 AMD LTD TO CLD VIS AND WIND